sensor_id;sensor_type;location;lat;lon;timestamp;P1;durP1;ratioP1;P2;durP2;ratioP2
51475;SDS011;37554;50.362;7.568;2024-03-02T00:00:57;1.27;;;1.13;;
51475;SDS011;37554;50.362;7.568;2024-03-02T00:03:23;0.82;;;0.82;;
51475;SDS011;37554;50.362;7.568;2024-03-02T00:05:50;0.73;;;0.60;;
51475;SDS011;37554;50.362;7.568;2024-03-02T00:08:21;1.00;;;0.70;;
51475;SDS011;37554;50.362;7.568;2024-03-02T00:10:53;0.90;;;0.70;;
51475;SDS011;37554;50.362;7.568;2024-03-02T00:13:23;1.25;;;0.80;;
51475;SDS011;37554;50.362;7.568;2024-03-02T00:15:53;0.90;;;0.80;;
51475;SDS011;37554;50.362;7.568;2024-03-02T00:20:49;1.20;;;0.77;;
51475;SDS011;37554;50.362;7.568;2024-03-02T00:23:21;0.95;;;0.73;;
51475;SDS011;37554;50.362;7.568;2024-03-02T00:25:48;0.80;;;0.70;;
51475;SDS011;37554;50.362;7.568;2024-03-02T00:28:25;0.80;;;0.75;;
51475;SDS011;37554;50.362;7.568;2024-03-02T00:33:23;1.35;;;0.90;;
51475;SDS011;37554;50.362;7.568;2024-03-02T00:35:51;0.95;;;0.73;;
51475;SDS011;37554;50.362;7.568;2024-03-02T00:38:17;0.88;;;0.80;;
51475;SDS011;37554;50.362;7.568;2024-03-02T00:40:43;1.30;;;0.98;;
51475;SDS011;37554;50.362;7.568;2024-03-02T00:43:19;1.00;;;0.88;;
51475;SDS011;37554;50.362;7.568;2024-03-02T00:46:06;0.93;;;0.80;;
51475;SDS011;37554;50.362;7.568;2024-03-02T00:48:31;1.00;;;0.73;;
51475;SDS011;37554;50.362;7.568;2024-03-02T00:51:00;1.60;;;0.90;;
51475;SDS011;37554;50.362;7.568;2024-03-02T00:53:28;0.90;;;0.60;;
51475;SDS011;37554;50.362;7.568;2024-03-02T00:55:56;1.33;;;0.88;;
51475;SDS011;37554;50.362;7.568;2024-03-02T00:58:22;0.95;;;0.85;;
51475;SDS011;37554;50.362;7.568;2024-03-02T01:00:47;1.15;;;0.73;;
51475;SDS011;37554;50.362;7.568;2024-03-02T01:03:13;0.82;;;0.68;;
51475;SDS011;37554;50.362;7.568;2024-03-02T01:05:42;1.13;;;0.80;;
51475;SDS011;37554;50.362;7.568;2024-03-02T01:08:08;0.82;;;0.70;;
51475;SDS011;37554;50.362;7.568;2024-03-02T01:10:35;1.30;;;0.90;;
51475;SDS011;37554;50.362;7.568;2024-03-02T01:13:01;0.93;;;0.57;;
51475;SDS011;37554;50.362;7.568;2024-03-02T01:15:26;2.05;;;0.60;;
51475;SDS011;37554;50.362;7.568;2024-03-02T01:17:52;0.90;;;0.60;;
51475;SDS011;37554;50.362;7.568;2024-03-02T01:20:17;1.02;;;0.80;;
51475;SDS011;37554;50.362;7.568;2024-03-02T01:22:43;0.90;;;0.70;;
51475;SDS011;37554;50.362;7.568;2024-03-02T01:25:09;1.08;;;0.73;;
51475;SDS011;37554;50.362;7.568;2024-03-02T01:27:35;1.15;;;0.90;;
51475;SDS011;37554;50.362;7.568;2024-03-02T01:30:00;0.93;;;0.63;;
51475;SDS011;37554;50.362;7.568;2024-03-02T01:32:26;1.15;;;0.68;;
51475;SDS011;37554;50.362;7.568;2024-03-02T01:34:52;0.90;;;0.82;;
51475;SDS011;37554;50.362;7.568;2024-03-02T01:37:17;1.10;;;0.60;;
51475;SDS011;37554;50.362;7.568;2024-03-02T01:39:43;0.73;;;0.65;;
51475;SDS011;37554;50.362;7.568;2024-03-02T01:42:08;0.65;;;0.60;;
51475;SDS011;37554;50.362;7.568;2024-03-02T01:44:35;0.75;;;0.50;;
51475;SDS011;37554;50.362;7.568;2024-03-02T01:47:01;1.10;;;0.70;;
51475;SDS011;37554;50.362;7.568;2024-03-02T01:49:27;1.08;;;0.70;;
51475;SDS011;37554;50.362;7.568;2024-03-02T01:51:52;0.93;;;0.50;;
51475;SDS011;37554;50.362;7.568;2024-03-02T01:54:18;1.30;;;0.70;;
51475;SDS011;37554;50.362;7.568;2024-03-02T01:56:44;0.75;;;0.70;;
51475;SDS011;37554;50.362;7.568;2024-03-02T01:59:10;0.75;;;0.65;;
51475;SDS011;37554;50.362;7.568;2024-03-02T02:01:36;1.30;;;0.90;;
51475;SDS011;37554;50.362;7.568;2024-03-02T02:04:02;1.58;;;0.68;;
51475;SDS011;37554;50.362;7.568;2024-03-02T02:06:27;0.60;;;0.60;;
51475;SDS011;37554;50.362;7.568;2024-03-02T02:08:53;0.95;;;0.65;;
51475;SDS011;37554;50.362;7.568;2024-03-02T02:11:18;0.90;;;0.70;;
51475;SDS011;37554;50.362;7.568;2024-03-02T02:13:44;0.88;;;0.57;;
51475;SDS011;37554;50.362;7.568;2024-03-02T02:16:10;1.13;;;0.77;;
51475;SDS011;37554;50.362;7.568;2024-03-02T02:18:35;2.53;;;0.80;;
51475;SDS011;37554;50.362;7.568;2024-03-02T02:21:02;0.63;;;0.63;;
51475;SDS011;37554;50.362;7.568;2024-03-02T02:23:27;0.90;;;0.65;;
51475;SDS011;37554;50.362;7.568;2024-03-02T02:25:53;1.42;;;0.73;;
51475;SDS011;37554;50.362;7.568;2024-03-02T02:28:19;0.73;;;0.70;;
51475;SDS011;37554;50.362;7.568;2024-03-02T02:30:45;1.65;;;1.10;;
51475;SDS011;37554;50.362;7.568;2024-03-02T02:33:10;1.20;;;0.80;;
51475;SDS011;37554;50.362;7.568;2024-03-02T02:35:36;1.05;;;0.70;;
51475;SDS011;37554;50.362;7.568;2024-03-02T02:38:01;1.17;;;1.00;;
51475;SDS011;37554;50.362;7.568;2024-03-02T02:40:28;1.10;;;0.90;;
51475;SDS011;37554;50.362;7.568;2024-03-02T02:42:56;1.45;;;1.00;;
51475;SDS011;37554;50.362;7.568;2024-03-02T02:45:24;1.95;;;0.88;;
51475;SDS011;37554;50.362;7.568;2024-03-02T02:47:49;1.67;;;1.10;;
51475;SDS011;37554;50.362;7.568;2024-03-02T02:50:15;1.98;;;1.20;;
51475;SDS011;37554;50.362;7.568;2024-03-02T02:52:41;1.90;;;0.90;;
51475;SDS011;37554;50.362;7.568;2024-03-02T02:55:08;1.20;;;0.98;;
51475;SDS011;37554;50.362;7.568;2024-03-02T02:57:34;1.20;;;1.10;;
51475;SDS011;37554;50.362;7.568;2024-03-02T03:00:06;1.42;;;1.00;;
51475;SDS011;37554;50.362;7.568;2024-03-02T03:02:45;1.17;;;1.08;;
51475;SDS011;37554;50.362;7.568;2024-03-02T03:05:13;1.73;;;1.10;;
51475;SDS011;37554;50.362;7.568;2024-03-02T03:07:39;1.92;;;1.23;;
51475;SDS011;37554;50.362;7.568;2024-03-02T03:10:06;1.70;;;1.48;;
51475;SDS011;37554;50.362;7.568;2024-03-02T03:12:32;2.00;;;1.20;;
51475;SDS011;37554;50.362;7.568;2024-03-02T03:15:01;2.20;;;1.50;;
51475;SDS011;37554;50.362;7.568;2024-03-02T03:17:29;1.77;;;1.45;;
51475;SDS011;37554;50.362;7.568;2024-03-02T03:19:55;1.90;;;1.70;;
51475;SDS011;37554;50.362;7.568;2024-03-02T03:22:20;2.13;;;1.30;;
51475;SDS011;37554;50.362;7.568;2024-03-02T03:24:46;2.22;;;1.50;;
51475;SDS011;37554;50.362;7.568;2024-03-02T03:27:12;2.38;;;1.30;;
51475;SDS011;37554;50.362;7.568;2024-03-02T03:29:37;1.55;;;1.40;;
51475;SDS011;37554;50.362;7.568;2024-03-02T03:32:03;1.60;;;1.33;;
51475;SDS011;37554;50.362;7.568;2024-03-02T03:34:32;1.70;;;1.52;;
51475;SDS011;37554;50.362;7.568;2024-03-02T03:36:58;1.80;;;1.70;;
51475;SDS011;37554;50.362;7.568;2024-03-02T03:39:23;2.63;;;2.30;;
51475;SDS011;37554;50.362;7.568;2024-03-02T03:41:49;1.75;;;1.63;;
51475;SDS011;37554;50.362;7.568;2024-03-02T03:44:14;2.15;;;1.95;;
51475;SDS011;37554;50.362;7.568;2024-03-02T03:46:40;2.10;;;1.90;;
51475;SDS011;37554;50.362;7.568;2024-03-02T03:49:06;1.88;;;1.77;;
51475;SDS011;37554;50.362;7.568;2024-03-02T03:51:32;2.45;;;1.95;;
51475;SDS011;37554;50.362;7.568;2024-03-02T03:53:58;3.15;;;2.30;;
51475;SDS011;37554;50.362;7.568;2024-03-02T03:56:24;2.08;;;1.88;;
51475;SDS011;37554;50.362;7.568;2024-03-02T03:58:50;2.55;;;2.10;;
51475;SDS011;37554;50.362;7.568;2024-03-02T04:01:15;2.40;;;2.17;;
51475;SDS011;37554;50.362;7.568;2024-03-02T04:03:41;4.22;;;2.47;;
51475;SDS011;37554;50.362;7.568;2024-03-02T04:06:06;2.45;;;2.25;;
51475;SDS011;37554;50.362;7.568;2024-03-02T04:08:32;2.70;;;2.50;;
51475;SDS011;37554;50.362;7.568;2024-03-02T04:10:57;2.38;;;2.17;;
51475;SDS011;37554;50.362;7.568;2024-03-02T04:13:23;2.28;;;2.08;;
51475;SDS011;37554;50.362;7.568;2024-03-02T04:15:49;2.45;;;2.25;;
51475;SDS011;37554;50.362;7.568;2024-03-02T04:18:14;2.58;;;2.38;;
51475;SDS011;37554;50.362;7.568;2024-03-02T04:20:40;2.88;;;2.03;;
51475;SDS011;37554;50.362;7.568;2024-03-02T04:23:05;2.50;;;2.30;;
51475;SDS011;37554;50.362;7.568;2024-03-02T04:25:31;2.42;;;2.22;;
51475;SDS011;37554;50.362;7.568;2024-03-02T04:27:56;2.72;;;2.33;;
51475;SDS011;37554;50.362;7.568;2024-03-02T04:30:22;2.70;;;2.50;;
51475;SDS011;37554;50.362;7.568;2024-03-02T04:32:47;2.33;;;2.05;;
51475;SDS011;37554;50.362;7.568;2024-03-02T04:35:14;2.13;;;1.90;;
51475;SDS011;37554;50.362;7.568;2024-03-02T04:37:39;2.92;;;2.50;;
51475;SDS011;37554;50.362;7.568;2024-03-02T04:40:05;2.50;;;2.30;;
51475;SDS011;37554;50.362;7.568;2024-03-02T04:42:34;2.92;;;2.55;;
51475;SDS011;37554;50.362;7.568;2024-03-02T04:45:00;2.40;;;2.17;;
51475;SDS011;37554;50.362;7.568;2024-03-02T04:47:26;2.55;;;2.35;;
51475;SDS011;37554;50.362;7.568;2024-03-02T04:49:52;2.75;;;2.03;;
51475;SDS011;37554;50.362;7.568;2024-03-02T04:52:17;2.95;;;2.72;;
51475;SDS011;37554;50.362;7.568;2024-03-02T04:54:43;2.45;;;2.13;;
51475;SDS011;37554;50.362;7.568;2024-03-02T04:57:28;2.50;;;2.13;;
51475;SDS011;37554;50.362;7.568;2024-03-02T04:59:53;2.53;;;2.33;;
51475;SDS011;37554;50.362;7.568;2024-03-02T05:02:19;2.70;;;2.50;;
51475;SDS011;37554;50.362;7.568;2024-03-02T05:04:44;3.33;;;2.55;;
51475;SDS011;37554;50.362;7.568;2024-03-02T05:07:10;3.65;;;2.67;;
51475;SDS011;37554;50.362;7.568;2024-03-02T05:09:35;3.40;;;2.78;;
51475;SDS011;37554;50.362;7.568;2024-03-02T05:12:01;3.10;;;2.80;;
51475;SDS011;37554;50.362;7.568;2024-03-02T05:14:36;2.80;;;2.35;;
51475;SDS011;37554;50.362;7.568;2024-03-02T05:17:03;3.00;;;2.63;;
51475;SDS011;37554;50.362;7.568;2024-03-02T05:19:29;2.65;;;2.42;;
51475;SDS011;37554;50.362;7.568;2024-03-02T05:21:54;4.03;;;2.75;;
51475;SDS011;37554;50.362;7.568;2024-03-02T05:24:20;3.58;;;2.60;;
51475;SDS011;37554;50.362;7.568;2024-03-02T05:26:45;2.70;;;2.50;;
51475;SDS011;37554;50.362;7.568;2024-03-02T05:29:11;3.63;;;2.65;;
51475;SDS011;37554;50.362;7.568;2024-03-02T05:31:37;3.10;;;2.80;;
51475;SDS011;37554;50.362;7.568;2024-03-02T05:34:02;2.92;;;2.72;;
51475;SDS011;37554;50.362;7.568;2024-03-02T05:36:28;2.90;;;2.70;;
51475;SDS011;37554;50.362;7.568;2024-03-02T05:38:54;4.18;;;3.20;;
51475;SDS011;37554;50.362;7.568;2024-03-02T05:41:19;3.30;;;3.00;;
51475;SDS011;37554;50.362;7.568;2024-03-02T05:43:45;2.53;;;2.33;;
51475;SDS011;37554;50.362;7.568;2024-03-02T05:46:11;2.63;;;2.42;;
51475;SDS011;37554;50.362;7.568;2024-03-02T05:48:37;2.83;;;2.40;;
51475;SDS011;37554;50.362;7.568;2024-03-02T05:51:02;3.20;;;2.80;;
51475;SDS011;37554;50.362;7.568;2024-03-02T05:53:28;4.43;;;3.35;;
51475;SDS011;37554;50.362;7.568;2024-03-02T05:55:53;2.97;;;2.63;;
51475;SDS011;37554;50.362;7.568;2024-03-02T05:58:20;3.58;;;3.28;;
51475;SDS011;37554;50.362;7.568;2024-03-02T06:00:49;3.47;;;3.17;;
51475;SDS011;37554;50.362;7.568;2024-03-02T06:03:15;3.25;;;2.95;;
51475;SDS011;37554;50.362;7.568;2024-03-02T06:05:40;3.22;;;2.80;;
51475;SDS011;37554;50.362;7.568;2024-03-02T06:08:06;3.08;;;2.78;;
51475;SDS011;37554;50.362;7.568;2024-03-02T06:10:32;3.25;;;2.72;;
51475;SDS011;37554;50.362;7.568;2024-03-02T06:12:58;3.25;;;2.95;;
51475;SDS011;37554;50.362;7.568;2024-03-02T06:15:24;3.10;;;2.85;;
51475;SDS011;37554;50.362;7.568;2024-03-02T06:17:49;3.10;;;2.80;;
51475;SDS011;37554;50.362;7.568;2024-03-02T06:20:15;3.08;;;2.80;;
51475;SDS011;37554;50.362;7.568;2024-03-02T06:22:41;3.65;;;3.33;;
51475;SDS011;37554;50.362;7.568;2024-03-02T06:25:06;2.83;;;2.63;;
51475;SDS011;37554;50.362;7.568;2024-03-02T06:27:32;2.88;;;2.60;;
51475;SDS011;37554;50.362;7.568;2024-03-02T06:29:57;3.00;;;2.70;;
51475;SDS011;37554;50.362;7.568;2024-03-02T06:32:23;2.63;;;2.42;;
51475;SDS011;37554;50.362;7.568;2024-03-02T06:34:50;3.08;;;2.80;;
51475;SDS011;37554;50.362;7.568;2024-03-02T06:37:16;3.40;;;3.00;;
51475;SDS011;37554;50.362;7.568;2024-03-02T06:39:41;2.88;;;2.58;;
51475;SDS011;37554;50.362;7.568;2024-03-02T06:42:07;3.80;;;2.80;;
51475;SDS011;37554;50.362;7.568;2024-03-02T06:44:33;3.05;;;2.75;;
51475;SDS011;37554;50.362;7.568;2024-03-02T06:46:59;2.90;;;2.60;;
51475;SDS011;37554;50.362;7.568;2024-03-02T06:49:24;3.92;;;2.53;;
51475;SDS011;37554;50.362;7.568;2024-03-02T06:51:50;3.60;;;2.47;;
51475;SDS011;37554;50.362;7.568;2024-03-02T06:54:16;3.13;;;2.85;;
51475;SDS011;37554;50.362;7.568;2024-03-02T06:56:41;2.72;;;2.53;;
51475;SDS011;37554;50.362;7.568;2024-03-02T06:59:07;3.00;;;2.65;;
51475;SDS011;37554;50.362;7.568;2024-03-02T07:01:32;2.90;;;2.67;;
51475;SDS011;37554;50.362;7.568;2024-03-02T07:03:58;2.95;;;2.47;;
51475;SDS011;37554;50.362;7.568;2024-03-02T07:06:23;3.22;;;2.72;;
51475;SDS011;37554;50.362;7.568;2024-03-02T07:08:49;2.50;;;2.30;;
51475;SDS011;37554;50.362;7.568;2024-03-02T07:11:15;2.70;;;2.50;;
51475;SDS011;37554;50.362;7.568;2024-03-02T07:13:40;2.88;;;2.55;;
51475;SDS011;37554;50.362;7.568;2024-03-02T07:16:06;3.25;;;2.50;;
51475;SDS011;37554;50.362;7.568;2024-03-02T07:18:52;3.45;;;2.55;;
51475;SDS011;37554;50.362;7.568;2024-03-02T07:21:20;2.80;;;1.90;;
51475;SDS011;37554;50.362;7.568;2024-03-02T07:23:47;3.05;;;2.35;;
51475;SDS011;37554;50.362;7.568;2024-03-02T07:26:12;2.58;;;2.38;;
51475;SDS011;37554;50.362;7.568;2024-03-02T07:28:40;3.80;;;3.40;;
51475;SDS011;37554;50.362;7.568;2024-03-02T07:31:06;4.85;;;4.30;;
51475;SDS011;37554;50.362;7.568;2024-03-02T07:33:32;4.30;;;3.90;;
51475;SDS011;37554;50.362;7.568;2024-03-02T07:35:59;5.05;;;4.20;;
51475;SDS011;37554;50.362;7.568;2024-03-02T07:38:25;5.40;;;3.78;;
51475;SDS011;37554;50.362;7.568;2024-03-02T07:40:52;4.55;;;3.45;;
51475;SDS011;37554;50.362;7.568;2024-03-02T07:43:20;3.30;;;3.00;;
51475;SDS011;37554;50.362;7.568;2024-03-02T07:45:47;3.42;;;3.13;;
51475;SDS011;37554;50.362;7.568;2024-03-02T07:48:13;3.67;;;3.20;;
51475;SDS011;37554;50.362;7.568;2024-03-02T07:50:39;3.28;;;2.92;;
51475;SDS011;37554;50.362;7.568;2024-03-02T07:53:05;3.65;;;2.75;;
51475;SDS011;37554;50.362;7.568;2024-03-02T07:55:32;3.10;;;2.60;;
51475;SDS011;37554;50.362;7.568;2024-03-02T07:57:58;3.03;;;2.55;;
51475;SDS011;37554;50.362;7.568;2024-03-02T08:00:25;3.13;;;2.85;;
51475;SDS011;37554;50.362;7.568;2024-03-02T08:02:51;2.85;;;2.60;;
51475;SDS011;37554;50.362;7.568;2024-03-02T08:05:17;2.78;;;2.58;;
51475;SDS011;37554;50.362;7.568;2024-03-02T08:07:46;2.40;;;2.20;;
51475;SDS011;37554;50.362;7.568;2024-03-02T08:10:12;2.75;;;2.25;;
51475;SDS011;37554;50.362;7.568;2024-03-02T08:12:38;2.92;;;2.08;;
51475;SDS011;37554;50.362;7.568;2024-03-02T08:15:04;2.35;;;2.15;;
51475;SDS011;37554;50.362;7.568;2024-03-02T08:17:31;4.35;;;2.03;;
51475;SDS011;37554;50.362;7.568;2024-03-02T08:19:57;2.10;;;1.90;;
51475;SDS011;37554;50.362;7.568;2024-03-02T08:22:23;1.90;;;1.70;;
51475;SDS011;37554;50.362;7.568;2024-03-02T08:24:51;5.07;;;1.88;;
51475;SDS011;37554;50.362;7.568;2024-03-02T08:27:17;3.63;;;1.70;;
51475;SDS011;37554;50.362;7.568;2024-03-02T08:29:43;2.75;;;2.17;;
51475;SDS011;37554;50.362;7.568;2024-03-02T08:32:08;2.22;;;2.00;;
51475;SDS011;37554;50.362;7.568;2024-03-02T08:34:34;1.83;;;1.58;;
51475;SDS011;37554;50.362;7.568;2024-03-02T08:37:00;2.00;;;1.80;;
51475;SDS011;37554;50.362;7.568;2024-03-02T08:39:27;2.63;;;1.70;;
51475;SDS011;37554;50.362;7.568;2024-03-02T08:41:53;1.92;;;1.63;;
51475;SDS011;37554;50.362;7.568;2024-03-02T08:44:19;1.60;;;1.50;;
51475;SDS011;37554;50.362;7.568;2024-03-02T08:46:45;2.10;;;1.63;;
51475;SDS011;37554;50.362;7.568;2024-03-02T08:49:10;1.95;;;1.60;;
51475;SDS011;37554;50.362;7.568;2024-03-02T08:51:37;2.45;;;2.05;;
51475;SDS011;37554;50.362;7.568;2024-03-02T08:54:02;1.52;;;1.38;;
51475;SDS011;37554;50.362;7.568;2024-03-02T08:56:29;1.55;;;1.45;;
51475;SDS011;37554;50.362;7.568;2024-03-02T08:58:55;2.35;;;1.50;;
51475;SDS011;37554;50.362;7.568;2024-03-02T09:01:21;1.67;;;1.25;;
51475;SDS011;37554;50.362;7.568;2024-03-02T09:03:47;2.08;;;1.60;;
51475;SDS011;37554;50.362;7.568;2024-03-02T09:06:14;2.22;;;1.50;;
51475;SDS011;37554;50.362;7.568;2024-03-02T09:08:42;2.20;;;1.25;;
51475;SDS011;37554;50.362;7.568;2024-03-02T09:11:08;1.70;;;1.30;;
51475;SDS011;37554;50.362;7.568;2024-03-02T09:13:35;2.88;;;1.00;;
51475;SDS011;37554;50.362;7.568;2024-03-02T09:16:02;1.75;;;1.30;;
51475;SDS011;37554;50.362;7.568;2024-03-02T09:18:29;1.42;;;0.88;;
51475;SDS011;37554;50.362;7.568;2024-03-02T09:20:54;1.40;;;0.90;;
51475;SDS011;37554;50.362;7.568;2024-03-02T09:23:20;1.80;;;1.55;;
51475;SDS011;37554;50.362;7.568;2024-03-02T09:25:46;1.58;;;1.48;;
51475;SDS011;37554;50.362;7.568;2024-03-02T09:28:12;1.80;;;1.52;;
51475;SDS011;37554;50.362;7.568;2024-03-02T09:30:37;1.75;;;1.50;;
51475;SDS011;37554;50.362;7.568;2024-03-02T09:33:03;2.35;;;1.30;;
51475;SDS011;37554;50.362;7.568;2024-03-02T09:35:29;2.35;;;1.65;;
51475;SDS011;37554;50.362;7.568;2024-03-02T09:37:55;3.33;;;1.38;;
51475;SDS011;37554;50.362;7.568;2024-03-02T09:40:24;1.40;;;1.30;;
51475;SDS011;37554;50.362;7.568;2024-03-02T09:42:51;4.75;;;1.67;;
51475;SDS011;37554;50.362;7.568;2024-03-02T09:45:22;4.55;;;1.83;;
51475;SDS011;37554;50.362;7.568;2024-03-02T09:47:50;2.45;;;1.58;;
51475;SDS011;37554;50.362;7.568;2024-03-02T09:50:16;1.60;;;1.50;;
51475;SDS011;37554;50.362;7.568;2024-03-02T09:52:42;2.65;;;1.30;;
51475;SDS011;37554;50.362;7.568;2024-03-02T09:55:08;1.75;;;1.25;;
51475;SDS011;37554;50.362;7.568;2024-03-02T09:57:34;2.55;;;1.23;;
51475;SDS011;37554;50.362;7.568;2024-03-02T10:00:00;1.63;;;1.50;;
51475;SDS011;37554;50.362;7.568;2024-03-02T10:02:26;2.10;;;1.55;;
51475;SDS011;37554;50.362;7.568;2024-03-02T10:04:51;2.78;;;1.33;;
51475;SDS011;37554;50.362;7.568;2024-03-02T10:07:18;2.05;;;1.42;;
51475;SDS011;37554;50.362;7.568;2024-03-02T10:09:45;1.20;;;1.10;;
51475;SDS011;37554;50.362;7.568;2024-03-02T10:12:14;1.30;;;1.08;;
51475;SDS011;37554;50.362;7.568;2024-03-02T10:14:40;1.77;;;1.17;;
51475;SDS011;37554;50.362;7.568;2024-03-02T10:17:10;1.80;;;0.90;;
51475;SDS011;37554;50.362;7.568;2024-03-02T10:19:37;1.90;;;1.10;;
51475;SDS011;37554;50.362;7.568;2024-03-02T10:22:04;1.55;;;1.10;;
51475;SDS011;37554;50.362;7.568;2024-03-02T10:24:34;2.42;;;1.00;;
51475;SDS011;37554;50.362;7.568;2024-03-02T10:27:04;1.90;;;1.20;;
51475;SDS011;37554;50.362;7.568;2024-03-02T10:29:38;1.50;;;1.00;;
51475;SDS011;37554;50.362;7.568;2024-03-02T10:32:05;1.20;;;0.90;;
51475;SDS011;37554;50.362;7.568;2024-03-02T10:34:31;2.85;;;1.00;;
51475;SDS011;37554;50.362;7.568;2024-03-02T10:36:57;1.13;;;0.95;;
51475;SDS011;37554;50.362;7.568;2024-03-02T10:39:23;1.10;;;0.80;;
51475;SDS011;37554;50.362;7.568;2024-03-02T10:41:49;1.42;;;1.00;;
51475;SDS011;37554;50.362;7.568;2024-03-02T10:44:18;1.40;;;1.10;;
51475;SDS011;37554;50.362;7.568;2024-03-02T10:46:44;1.33;;;0.90;;
51475;SDS011;37554;50.362;7.568;2024-03-02T10:49:12;2.88;;;0.80;;
51475;SDS011;37554;50.362;7.568;2024-03-02T10:51:37;1.15;;;0.93;;
51475;SDS011;37554;50.362;7.568;2024-03-02T10:54:03;1.70;;;1.00;;
51475;SDS011;37554;50.362;7.568;2024-03-02T10:56:40;1.75;;;0.95;;
51475;SDS011;37554;50.362;7.568;2024-03-02T11:02:02;0.85;;;0.70;;
51475;SDS011;37554;50.362;7.568;2024-03-02T11:04:29;1.10;;;0.98;;
51475;SDS011;37554;50.362;7.568;2024-03-02T11:07:06;1.42;;;0.70;;
51475;SDS011;37554;50.362;7.568;2024-03-02T11:09:34;1.48;;;0.93;;
51475;SDS011;37554;50.362;7.568;2024-03-02T11:12:03;1.20;;;0.80;;
51475;SDS011;37554;50.362;7.568;2024-03-02T11:14:34;1.37;;;0.73;;
51475;SDS011;37554;50.362;7.568;2024-03-02T11:17:08;1.30;;;0.95;;
51475;SDS011;37554;50.362;7.568;2024-03-02T11:19:34;1.13;;;0.80;;
51475;SDS011;37554;50.362;7.568;2024-03-02T11:22:02;2.13;;;1.02;;
51475;SDS011;37554;50.362;7.568;2024-03-02T11:24:29;1.98;;;1.15;;
51475;SDS011;37554;50.362;7.568;2024-03-02T11:26:58;1.15;;;0.75;;
51475;SDS011;37554;50.362;7.568;2024-03-02T11:32:05;3.50;;;1.00;;
51475;SDS011;37554;50.362;7.568;2024-03-02T11:34:40;3.00;;;0.70;;
51475;SDS011;37554;50.362;7.568;2024-03-02T11:37:11;0.70;;;0.52;;
51475;SDS011;37554;50.362;7.568;2024-03-02T11:39:38;1.02;;;0.70;;
51475;SDS011;37554;50.362;7.568;2024-03-02T11:42:07;1.67;;;0.73;;
51475;SDS011;37554;50.362;7.568;2024-03-02T11:44:36;1.40;;;0.80;;
51475;SDS011;37554;50.362;7.568;2024-03-02T11:47:05;0.52;;;0.50;;
51475;SDS011;37554;50.362;7.568;2024-03-02T11:49:53;0.80;;;0.65;;
51475;SDS011;37554;50.362;7.568;2024-03-02T11:52:19;0.85;;;0.60;;
51475;SDS011;37554;50.362;7.568;2024-03-02T11:54:47;0.70;;;0.52;;
51475;SDS011;37554;50.362;7.568;2024-03-02T11:57:14;1.17;;;0.60;;
51475;SDS011;37554;50.362;7.568;2024-03-02T11:59:41;0.63;;;0.55;;
51475;SDS011;37554;50.362;7.568;2024-03-02T12:02:13;0.68;;;0.55;;
51475;SDS011;37554;50.362;7.568;2024-03-02T12:04:41;0.60;;;0.55;;
51475;SDS011;37554;50.362;7.568;2024-03-02T12:07:07;2.08;;;0.65;;
51475;SDS011;37554;50.362;7.568;2024-03-02T12:09:33;0.70;;;0.47;;
51475;SDS011;37554;50.362;7.568;2024-03-02T12:14:29;0.47;;;0.40;;
51475;SDS011;37554;50.362;7.568;2024-03-02T12:16:55;1.67;;;0.70;;
51475;SDS011;37554;50.362;7.568;2024-03-02T12:19:23;0.80;;;0.50;;
51475;SDS011;37554;50.362;7.568;2024-03-02T12:21:49;0.82;;;0.52;;
51475;SDS011;37554;50.362;7.568;2024-03-02T12:24:15;0.82;;;0.52;;
51475;SDS011;37554;50.362;7.568;2024-03-02T12:26:41;0.93;;;0.60;;
51475;SDS011;37554;50.362;7.568;2024-03-02T12:29:07;0.80;;;0.43;;
51475;SDS011;37554;50.362;7.568;2024-03-02T12:31:33;1.35;;;0.50;;
51475;SDS011;37554;50.362;7.568;2024-03-02T12:34:00;0.90;;;0.55;;
51475;SDS011;37554;50.362;7.568;2024-03-02T12:36:26;0.75;;;0.60;;
51475;SDS011;37554;50.362;7.568;2024-03-02T12:38:52;0.95;;;0.60;;
51475;SDS011;37554;50.362;7.568;2024-03-02T12:41:19;1.42;;;0.60;;
51475;SDS011;37554;50.362;7.568;2024-03-02T12:43:45;1.10;;;0.70;;
51475;SDS011;37554;50.362;7.568;2024-03-02T12:46:11;0.90;;;0.70;;
51475;SDS011;37554;50.362;7.568;2024-03-02T12:48:36;0.60;;;0.40;;
51475;SDS011;37554;50.362;7.568;2024-03-02T12:51:05;0.70;;;0.40;;
51475;SDS011;37554;50.362;7.568;2024-03-02T12:53:31;0.88;;;0.60;;
51475;SDS011;37554;50.362;7.568;2024-03-02T12:55:57;1.90;;;0.70;;
51475;SDS011;37554;50.362;7.568;2024-03-02T12:58:23;1.58;;;0.50;;
51475;SDS011;37554;50.362;7.568;2024-03-02T13:00:49;0.75;;;0.52;;
51475;SDS011;37554;50.362;7.568;2024-03-02T13:03:14;0.40;;;0.30;;
51475;SDS011;37554;50.362;7.568;2024-03-02T13:05:48;0.50;;;0.40;;
51475;SDS011;37554;50.362;7.568;2024-03-02T13:08:14;0.60;;;0.50;;
51475;SDS011;37554;50.362;7.568;2024-03-02T13:10:40;0.82;;;0.50;;
51475;SDS011;37554;50.362;7.568;2024-03-02T13:13:06;1.35;;;0.40;;
51475;SDS011;37554;50.362;7.568;2024-03-02T13:15:32;0.65;;;0.40;;
51475;SDS011;37554;50.362;7.568;2024-03-02T13:17:58;0.68;;;0.40;;
51475;SDS011;37554;50.362;7.568;2024-03-02T13:20:31;0.95;;;0.43;;
51475;SDS011;37554;50.362;7.568;2024-03-02T13:22:57;0.75;;;0.47;;
51475;SDS011;37554;50.362;7.568;2024-03-02T13:25:23;0.88;;;0.47;;
51475;SDS011;37554;50.362;7.568;2024-03-02T13:27:48;0.80;;;0.45;;
51475;SDS011;37554;50.362;7.568;2024-03-02T13:30:14;0.55;;;0.30;;
51475;SDS011;37554;50.362;7.568;2024-03-02T13:32:39;0.85;;;0.30;;
51475;SDS011;37554;50.362;7.568;2024-03-02T13:35:05;0.40;;;0.30;;
51475;SDS011;37554;50.362;7.568;2024-03-02T13:37:31;3.20;;;0.40;;
51475;SDS011;37554;50.362;7.568;2024-03-02T13:39:57;0.68;;;0.30;;
51475;SDS011;37554;50.362;7.568;2024-03-02T13:42:23;0.32;;;0.30;;
51475;SDS011;37554;50.362;7.568;2024-03-02T13:44:48;0.32;;;0.30;;
51475;SDS011;37554;50.362;7.568;2024-03-02T13:47:16;0.85;;;0.30;;
51475;SDS011;37554;50.362;7.568;2024-03-02T13:49:42;0.93;;;0.40;;
51475;SDS011;37554;50.362;7.568;2024-03-02T13:52:11;0.70;;;0.28;;
51475;SDS011;37554;50.362;7.568;2024-03-02T13:54:40;0.43;;;0.35;;
51475;SDS011;37554;50.362;7.568;2024-03-02T13:57:07;0.28;;;0.22;;
51475;SDS011;37554;50.362;7.568;2024-03-02T13:59:34;0.57;;;0.30;;
51475;SDS011;37554;50.362;7.568;2024-03-02T14:02:00;0.60;;;0.38;;
51475;SDS011;37554;50.362;7.568;2024-03-02T14:04:26;1.35;;;0.30;;
51475;SDS011;37554;50.362;7.568;2024-03-02T14:06:52;0.50;;;0.30;;
51475;SDS011;37554;50.362;7.568;2024-03-02T14:09:18;0.40;;;0.25;;
51475;SDS011;37554;50.362;7.568;2024-03-02T14:11:45;0.52;;;0.22;;
51475;SDS011;37554;50.362;7.568;2024-03-02T14:14:11;0.30;;;0.30;;
51475;SDS011;37554;50.362;7.568;2024-03-02T14:16:36;0.68;;;0.40;;
51475;SDS011;37554;50.362;7.568;2024-03-02T14:19:02;0.60;;;0.30;;
51475;SDS011;37554;50.362;7.568;2024-03-02T14:21:29;0.55;;;0.43;;
51475;SDS011;37554;50.362;7.568;2024-03-02T14:23:55;0.73;;;0.40;;
51475;SDS011;37554;50.362;7.568;2024-03-02T14:26:21;0.63;;;0.40;;
51475;SDS011;37554;50.362;7.568;2024-03-02T14:28:46;0.47;;;0.35;;
51475;SDS011;37554;50.362;7.568;2024-03-02T14:31:12;1.10;;;0.60;;
51475;SDS011;37554;50.362;7.568;2024-03-02T14:33:38;0.68;;;0.47;;
51475;SDS011;37554;50.362;7.568;2024-03-02T14:36:03;1.27;;;0.50;;
51475;SDS011;37554;50.362;7.568;2024-03-02T14:38:30;0.70;;;0.40;;
51475;SDS011;37554;50.362;7.568;2024-03-02T14:40:55;0.52;;;0.40;;
51475;SDS011;37554;50.362;7.568;2024-03-02T14:43:21;0.60;;;0.60;;
51475;SDS011;37554;50.362;7.568;2024-03-02T14:45:47;0.80;;;0.40;;
51475;SDS011;37554;50.362;7.568;2024-03-02T14:48:16;0.55;;;0.50;;
51475;SDS011;37554;50.362;7.568;2024-03-02T14:50:44;1.35;;;0.60;;
51475;SDS011;37554;50.362;7.568;2024-03-02T14:53:12;0.60;;;0.50;;
51475;SDS011;37554;50.362;7.568;2024-03-02T14:55:38;0.63;;;0.40;;
51475;SDS011;37554;50.362;7.568;2024-03-02T14:58:04;0.40;;;0.38;;